Time;durP1;ratioP1;P1;durP2;ratioP2;P2;SDS_P1;SDS_P2;PMS_P1;PMS_P2;Temp;Humidity;BMP_temperature;BMP_pressure;BME280_temperature;BME280_humidity;BME280_pressure;Samples;Min_cycle;Max_cycle;Signal;HPM_P1;HPM_P2
2022/09/14 00:01:05;;;;;;;4.43;1.55;;;14.00;99.90;;;;;;5034384;28;20051;-81
2022/09/14 00:03:31;;;;;;;4.88;1.52;;;14.00;99.90;;;;;;5036164;28;20045;-81
2022/09/14 00:06:06;;;;;;;4.43;1.60;;;14.00;99.90;;;;;;5051159;28;20046;-81
2022/09/14 00:08:33;;;;;;;3.88;1.50;;;13.90;99.90;;;;;;5043097;28;20071;-80
2022/09/14 00:11:04;;;;;;;4.35;1.60;;;13.90;99.90;;;;;;5019593;28;20155;-81
2022/09/14 00:13:31;;;;;;;6.75;1.70;;;13.90;99.90;;;;;;5053161;28;20139;-81
2022/09/14 00:16:02;;;;;;;10.95;1.80;;;13.90;99.90;;;;;;5037503;28;20102;-83
2022/09/14 00:18:28;;;;;;;4.93;1.50;;;13.90;99.90;;;;;;5038399;28;20048;-80
2022/09/14 00:20:59;;;;;;;5.80;1.60;;;13.90;99.90;;;;;;5033119;28;20036;-80
2022/09/14 00:23:25;;;;;;;7.68;1.50;;;14.00;99.90;;;;;;5041232;28;20489;-81
2022/09/14 00:25:51;;;;;;;3.88;1.58;;;13.90;99.90;;;;;;5057971;28;20075;-81
2022/09/14 00:28:16;;;;;;;6.93;1.70;;;13.90;99.90;;;;;;5021532;28;20039;-80
2022/09/14 00:30:42;;;;;;;6.88;1.90;;;13.90;99.90;;;;;;5035175;28;20471;-81
2022/09/14 00:33:11;;;;;;;2.90;1.50;;;13.90;99.90;;;;;;5033287;28;20508;-81
2022/09/14 00:35:37;;;;;;;5.88;2.38;;;13.90;99.90;;;;;;5024277;28;20047;-80
2022/09/14 00:38:05;;;;;;;5.10;1.70;;;13.80;99.90;;;;;;5042284;28;20174;-81
2022/09/14 00:40:34;;;;;;;5.32;1.85;;;13.80;99.90;;;;;;5058091;28;20508;-80
2022/09/14 00:43:01;;;;;;;4.72;1.92;;;13.80;99.90;;;;;;5025090;28;20041;-81
2022/09/14 00:45:27;;;;;;;2.97;1.33;;;13.80;99.90;;;;;;5059089;28;20043;-81
2022/09/14 00:47:56;;;;;;;3.60;1.40;;;13.80;99.90;;;;;;5025242;28;20043;-80
2022/09/14 00:50:22;;;;;;;5.65;1.73;;;13.80;99.90;;;;;;5041157;28;20115;-80
2022/09/14 00:52:49;;;;;;;3.28;1.60;;;14.00;99.90;;;;;;5042331;28;20124;-83
2022/09/14 00:55:20;;;;;;;3.75;1.65;;;13.80;99.90;;;;;;5055851;28;20484;-80
2022/09/14 00:57:49;;;;;;;6.80;1.80;;;13.80;99.90;;;;;;5058988;28;20043;-81
2022/09/14 01:00:19;;;;;;;5.30;2.00;;;13.70;99.90;;;;;;5059345;28;20421;-81
2022/09/14 01:02:46;;;;;;;3.45;2.00;;;13.80;99.90;;;;;;5054103;28;20037;-80
2022/09/14 01:05:13;;;;;;;5.78;1.60;;;13.70;99.90;;;;;;5058210;28;20042;-80
2022/09/14 01:07:52;;;;;;;4.95;1.80;;;13.70;99.90;;;;;;5040690;28;20037;-80
2022/09/14 01:10:18;;;;;;;4.75;1.75;;;13.70;99.90;;;;;;5067776;28;20484;-81
2022/09/14 01:13:06;;;;;;;6.93;1.65;;;13.60;99.90;;;;;;5038115;28;20067;-81
2022/09/14 01:15:58;;;;;;;3.78;1.60;;;13.60;99.90;;;;;;5057346;28;20481;-81
2022/09/14 01:18:32;;;;;;;3.30;1.60;;;13.60;99.90;;;;;;5056038;28;20397;-81
2022/09/14 01:21:12;;;;;;;5.25;2.00;;;13.50;99.90;;;;;;5037753;28;20060;-81
2022/09/14 01:24:13;;;;;;;5.00;1.88;;;13.50;99.90;;;;;;5053842;28;20112;-81
2022/09/14 01:26:57;;;;;;;4.95;1.50;;;13.50;99.90;;;;;;5042562;28;20039;-82
2022/09/14 01:29:32;;;;;;;7.32;1.80;;;13.40;99.90;;;;;;5058753;28;20044;-81
2022/09/14 01:32:07;;;;;;;6.47;1.85;;;13.50;99.90;;;;;;5033106;28;20120;-81
2022/09/14 01:34:39;;;;;;;3.55;1.80;;;13.50;99.90;;;;;;5041141;28;20037;-81
2022/09/14 01:37:26;;;;;;;4.03;1.45;;;13.40;99.90;;;;;;5040124;28;20040;-80
2022/09/14 01:40:12;;;;;;;3.72;1.50;;;13.40;99.90;;;;;;5037855;28;20105;-80
2022/09/14 01:42:41;;;;;;;5.63;1.83;;;13.40;99.90;;;;;;5054628;28;20044;-80
2022/09/14 01:45:12;;;;;;;4.45;1.90;;;13.40;99.90;;;;;;5037931;28;20071;-80
2022/09/14 01:47:54;;;;;;;3.45;1.63;;;13.40;99.90;;;;;;5032634;28;20037;-80
2022/09/14 01:50:53;;;;;;;5.25;1.90;;;13.30;99.90;;;;;;5051685;28;20033;-81
2022/09/14 01:53:23;;;;;;;5.05;1.90;;;13.30;99.90;;;;;;5052314;28;20048;-80
2022/09/14 01:56:17;;;;;;;6.50;1.85;;;13.20;99.90;;;;;;5074176;28;20058;-81
2022/09/14 01:59:03;;;;;;;5.05;1.70;;;13.10;99.90;;;;;;5054461;28;20045;-80
2022/09/14 02:01:36;;;;;;;4.43;1.95;;;13.20;99.90;;;;;;5053247;28;20138;-80
2022/09/14 02:04:06;;;;;;;4.63;2.10;;;13.20;99.90;;;;;;5054885;28;20047;-80
2022/09/14 02:06:39;;;;;;;4.70;2.00;;;13.20;99.90;;;;;;5039199;28;20041;-80
2022/09/14 02:09:08;;;;;;;3.33;1.70;;;13.20;99.90;;;;;;5055019;28;20177;-81
2022/09/14 02:11:35;;;;;;;4.68;1.85;;;13.20;99.90;;;;;;5036469;28;20043;-81
2022/09/14 02:14:01;;;;;;;3.58;1.80;;;13.20;99.90;;;;;;5024191;28;20501;-81
2022/09/14 02:16:27;;;;;;;3.50;1.90;;;13.20;99.90;;;;;;5023124;28;20036;-81
2022/09/14 02:18:54;;;;;;;7.95;2.20;;;13.20;99.90;;;;;;5049984;28;20044;-81
2022/09/14 02:21:26;;;;;;;5.03;1.80;;;13.20;99.90;;;;;;5038001;28;20097;-81
2022/09/14 02:23:53;;;;;;;4.97;1.95;;;13.20;99.90;;;;;;5035336;28;20057;-80
2022/09/14 02:26:21;;;;;;;5.38;2.38;;;13.20;99.90;;;;;;5035299;28;20033;-81
2022/09/14 02:28:48;;;;;;;4.03;2.53;;;13.20;99.90;;;;;;5036211;28;20033;-81
2022/09/14 02:31:30;;;;;;;5.03;2.20;;;13.20;99.90;;;;;;5027602;28;20041;-81
2022/09/14 02:33:59;;;;;;;4.00;2.15;;;13.20;99.90;;;;;;5033257;28;20296;-81
2022/09/14 02:36:46;;;;;;;4.30;2.03;;;13.20;99.90;;;;;;5034913;28;20071;-81
2022/09/14 02:39:21;;;;;;;4.57;2.10;;;13.10;99.90;;;;;;5041448;28;20049;-82
2022/09/14 02:42:01;;;;;;;3.05;1.85;;;13.10;99.90;;;;;;5051393;28;20163;-81
2022/09/14 02:44:51;;;;;;;4.93;2.15;;;13.10;99.90;;;;;;5021762;28;20128;-80
2022/09/14 02:47:49;;;;;;;4.82;1.90;;;13.10;99.90;;;;;;5042393;28;20029;-82
2022/09/14 02:50:22;;;;;;;4.50;1.92;;;13.10;99.90;;;;;;5000900;28;20045;-81
2022/09/14 02:53:09;;;;;;;3.88;1.98;;;13.20;99.90;;;;;;5035666;28;20041;-82
2022/09/14 02:55:38;;;;;;;4.93;2.22;;;13.20;99.90;;;;;;5064561;28;20041;-81
2022/09/14 02:58:12;;;;;;;2.65;2.05;;;13.10;99.90;;;;;;5037039;28;20033;-81
2022/09/14 03:00:41;;;;;;;5.32;2.55;;;13.20;99.90;;;;;;5052921;28;20041;-81
2022/09/14 03:03:11;;;;;;;5.53;2.92;;;13.10;99.90;;;;;;5034675;28;20749;-81
2022/09/14 03:05:37;;;;;;;3.45;2.65;;;13.10;99.90;;;;;;5051044;28;20053;-81
2022/09/14 03:08:03;;;;;;;5.95;2.70;;;13.10;99.90;;;;;;5052591;28;20037;-80
2022/09/14 03:10:30;;;;;;;6.18;2.80;;;13.10;99.90;;;;;;5042906;28;20047;-82
2022/09/14 03:12:57;;;;;;;6.40;3.10;;;13.10;99.90;;;;;;5049811;28;20044;-81
2022/09/14 03:15:24;;;;;;;3.67;2.53;;;13.10;99.90;;;;;;5035007;28;20043;-81
2022/09/14 03:17:50;;;;;;;4.60;2.40;;;13.10;99.90;;;;;;5019519;28;20043;-81
2022/09/14 03:20:24;;;;;;;4.00;2.63;;;13.10;99.90;;;;;;5036727;28;20114;-81
2022/09/14 03:22:50;;;;;;;5.40;2.72;;;12.90;99.90;;;;;;5049009;28;20053;-81
2022/09/14 03:25:18;;;;;;;4.55;2.20;;;13.10;99.90;;;;;;5052402;28;20099;-81
2022/09/14 03:27:52;;;;;;;4.25;2.60;;;13.10;99.90;;;;;;5052577;28;20041;-81
2022/09/14 03:30:19;;;;;;;7.00;2.28;;;13.10;99.90;;;;;;5051769;28;20064;-80
2022/09/14 03:32:49;;;;;;;4.07;2.30;;;13.10;99.90;;;;;;5066216;28;20112;-81
2022/09/14 03:35:15;;;;;;;7.80;2.63;;;13.10;99.90;;;;;;5050719;28;20151;-81
2022/09/14 03:37:43;;;;;;;4.05;2.17;;;13.10;99.90;;;;;;5052134;28;20044;-81
2022/09/14 03:40:10;;;;;;;4.80;2.25;;;13.10;99.90;;;;;;5052131;28;20045;-80
2022/09/14 03:42:36;;;;;;;3.60;2.25;;;13.10;99.90;;;;;;5035363;28;20041;-82
2022/09/14 03:45:06;;;;;;;5.38;2.58;;;13.10;99.90;;;;;;5049707;28;20059;-81
2022/09/14 03:47:32;;;;;;;5.05;2.50;;;12.90;99.90;;;;;;5019761;28;20049;-81
2022/09/14 03:49:58;;;;;;;5.05;2.38;;;13.10;99.90;;;;;;4999066;28;20432;-81
2022/09/14 03:52:24;;;;;;;5.22;2.30;;;13.20;99.90;;;;;;5050310;28;20099;-81
2022/09/14 03:54:50;;;;;;;5.07;2.90;;;12.60;99.90;;;;;;5030419;28;20069;-81
2022/09/14 03:57:16;;;;;;;3.97;2.47;;;13.10;99.90;;;;;;5053971;28;20698;-82
2022/09/14 03:59:42;;;;;;;6.38;3.05;;;13.20;99.90;;;;;;5036185;28;20037;-81
2022/09/14 04:02:08;;;;;;;4.95;2.85;;;13.20;99.90;;;;;;5016701;28;20034;-81
2022/09/14 04:04:33;;;;;;;4.90;2.75;;;13.20;99.90;;;;;;5056503;28;20497;-81
2022/09/14 04:07:00;;;;;;;5.07;2.78;;;13.20;99.90;;;;;;5013762;28;20041;-83
2022/09/14 04:09:46;;;;;;;4.72;3.00;;;13.20;99.90;;;;;;5022700;28;20072;-82
2022/09/14 04:12:18;;;;;;;9.35;2.95;;;13.20;99.90;;;;;;5064541;28;20128;-82
2022/09/14 04:14:48;;;;;;;6.88;2.53;;;13.20;99.90;;;;;;5028844;28;20401;-79
2022/09/14 04:17:16;;;;;;;5.78;2.80;;;13.20;99.90;;;;;;5012026;28;20067;-80
2022/09/14 04:19:43;;;;;;;5.43;3.00;;;13.30;99.90;;;;;;5019016;28;20052;-81
2022/09/14 04:22:10;;;;;;;6.97;3.67;;;13.30;99.90;;;;;;5038605;28;20049;-81
2022/09/14 04:24:36;;;;;;;4.43;3.33;;;13.30;99.90;;;;;;5031304;28;20045;-81
2022/09/14 04:27:02;;;;;;;8.20;4.32;;;13.30;99.90;;;;;;5023209;28;20105;-81
2022/09/14 04:29:37;;;;;;;8.35;4.32;;;13.30;99.90;;;;;;5038787;28;20040;-82
2022/09/14 04:32:04;;;;;;;8.63;4.40;;;13.30;99.90;;;;;;5051950;28;20044;-82
2022/09/14 04:34:45;;;;;;;11.15;5.70;;;13.30;99.90;;;;;;5022710;28;20048;-80
2022/09/14 04:37:15;;;;;;;8.18;5.07;;;13.30;99.90;;;;;;5021791;28;20516;-81
2022/09/14 04:39:42;;;;;;;9.93;5.50;;;13.30;99.90;;;;;;5039755;28;20039;-81
2022/09/14 04:42:09;;;;;;;7.03;4.72;;;13.30;99.90;;;;;;5021888;28;20462;-80
2022/09/14 04:44:38;;;;;;;11.75;5.20;;;13.30;99.90;;;;;;5019954;28;20130;-81
2022/09/14 04:47:11;;;;;;;9.13;5.38;;;13.30;99.90;;;;;;5038724;28;20078;-80
2022/09/14 04:49:37;;;;;;;7.72;5.57;;;13.30;99.90;;;;;;5029466;28;20037;-81
2022/09/14 04:52:03;;;;;;;7.45;5.38;;;13.30;99.90;;;;;;5033826;28;20060;-80
2022/09/14 04:54:32;;;;;;;8.35;5.47;;;13.30;99.90;;;;;;5046980;28;20559;-81
2022/09/14 04:56:58;;;;;;;12.82;6.30;;;13.30;99.90;;;;;;5066747;28;20033;-81
2022/09/14 04:59:24;;;;;;;10.43;5.85;;;13.30;99.90;;;;;;5021159;28;20033;-80
2022/09/14 05:01:50;;;;;;;9.30;5.70;;;13.30;99.90;;;;;;5037693;28;20037;-81
2022/09/14 05:04:16;;;;;;;14.32;6.18;;;13.30;99.90;;;;;;5048771;28;20101;-79
2022/09/14 05:06:43;;;;;;;12.35;6.07;;;13.30;99.90;;;;;;5055155;28;20052;-80
2022/09/14 05:09:14;;;;;;;10.05;5.72;;;13.30;99.90;;;;;;5040624;28;20068;-81
2022/09/14 05:11:41;;;;;;;8.45;6.10;;;13.30;99.90;;;;;;5039751;28;20045;-81
2022/09/14 05:14:10;;;;;;;8.52;5.95;;;13.30;99.90;;;;;;5048718;28;20578;-80
2022/09/14 05:16:37;;;;;;;13.23;6.07;;;13.30;99.90;;;;;;5071976;28;20112;-86
2022/09/14 05:19:06;;;;;;;8.18;5.55;;;13.30;99.90;;;;;;5045819;28;20044;-85
2022/09/14 05:21:33;;;;;;;10.20;5.40;;;13.30;99.90;;;;;;5056731;28;20049;-85
2022/09/14 05:24:01;;;;;;;8.90;5.30;;;13.40;99.90;;;;;;5053822;28;20060;-86
2022/09/14 05:26:28;;;;;;;7.97;4.78;;;13.40;99.90;;;;;;5047706;28;20033;-86
2022/09/14 05:28:57;;;;;;;9.35;5.10;;;13.40;99.90;;;;;;5034680;28;20072;-86
2022/09/14 05:31:24;;;;;;;8.10;4.43;;;13.40;99.90;;;;;;5073328;28;20036;-85
2022/09/14 05:33:52;;;;;;;6.40;4.72;;;13.30;99.90;;;;;;5048052;28;20123;-86
2022/09/14 05:36:18;;;;;;;7.97;5.03;;;13.40;99.90;;;;;;5059183;28;20041;-86
2022/09/14 05:38:44;;;;;;;7.78;5.05;;;13.40;99.90;;;;;;5021212;28;20041;-86
2022/09/14 05:41:12;;;;;;;7.43;5.10;;;13.40;99.90;;;;;;5027853;28;20537;-85
2022/09/14 05:43:38;;;;;;;9.13;4.88;;;13.40;99.90;;;;;;5037183;28;20045;-85
2022/09/14 05:46:08;;;;;;;8.30;5.05;;;13.40;99.90;;;;;;5020806;28;20037;-85
2022/09/14 05:48:35;;;;;;;11.57;4.80;;;13.40;99.90;;;;;;5054695;28;20036;-85
2022/09/14 05:51:06;;;;;;;6.80;5.18;;;13.40;99.90;;;;;;5039989;28;20048;-85
2022/09/14 05:53:32;;;;;;;7.75;4.60;;;13.50;99.90;;;;;;5036051;28;20047;-85
2022/09/14 05:56:02;;;;;;;7.35;5.03;;;13.50;99.90;;;;;;5036813;28;20037;-84
2022/09/14 05:58:27;;;;;;;9.60;4.80;;;13.50;99.90;;;;;;5035362;28;20076;-85
2022/09/14 06:00:53;;;;;;;7.20;4.13;;;13.50;99.90;;;;;;5033803;28;20041;-86
2022/09/14 06:03:19;;;;;;;9.32;5.40;;;13.50;99.90;;;;;;5024209;28;20043;-86
2022/09/14 06:05:44;;;;;;;9.18;5.03;;;13.50;99.90;;;;;;5016857;28;20406;-85
2022/09/14 06:08:10;;;;;;;7.78;5.38;;;13.50;99.90;;;;;;5021003;28;20481;-84
2022/09/14 06:10:36;;;;;;;13.65;5.25;;;13.60;99.90;;;;;;5035809;28;20032;-85
2022/09/14 06:13:01;;;;;;;8.65;4.70;;;13.60;99.90;;;;;;5022016;28;20080;-85
2022/09/14 06:15:27;;;;;;;8.02;4.65;;;13.60;99.90;;;;;;5034855;28;20031;-84
2022/09/14 06:17:53;;;;;;;9.77;4.75;;;13.60;99.90;;;;;;5039934;28;20041;-84
2022/09/14 06:20:18;;;;;;;9.55;4.63;;;13.70;99.90;;;;;;5004827;28;20049;-83
2022/09/14 06:22:44;;;;;;;8.13;5.03;;;13.70;99.90;;;;;;5041018;28;20061;-84
2022/09/14 06:25:10;;;;;;;8.35;5.10;;;13.70;99.90;;;;;;5051648;28;20120;-84
2022/09/14 06:27:36;;;;;;;8.60;5.03;;;13.70;99.90;;;;;;5011387;28;20068;-84
2022/09/14 06:30:03;;;;;;;10.80;5.07;;;13.80;99.90;;;;;;5025041;28;20037;-85
2022/09/14 06:32:30;;;;;;;11.10;5.13;;;13.90;99.90;;;;;;5047245;28;20494;-85
2022/09/14 06:34:56;;;;;;;8.80;5.32;;;13.90;99.90;;;;;;5045172;28;20483;-84
2022/09/14 06:37:22;;;;;;;8.63;4.78;;;13.90;99.90;;;;;;5054422;28;20098;-84
2022/09/14 06:39:47;;;;;;;6.45;4.72;;;14.00;99.90;;;;;;5012901;28;20501;-84
2022/09/14 06:42:13;;;;;;;7.13;4.68;;;14.00;99.90;;;;;;5046321;28;20095;-84
2022/09/14 06:44:39;;;;;;;7.55;4.90;;;14.00;99.90;;;;;;5047683;28;20045;-84
2022/09/14 06:47:05;;;;;;;9.63;5.15;;;14.10;99.90;;;;;;5019679;28;20124;-84
2022/09/14 06:49:31;;;;;;;9.68;4.88;;;14.10;99.90;;;;;;5036138;28;20040;-82
2022/09/14 06:51:57;;;;;;;9.98;5.30;;;14.20;99.90;;;;;;5022958;28;20033;-83
2022/09/14 06:54:24;;;;;;;6.72;5.00;;;14.20;99.90;;;;;;5040992;28;20115;-83
2022/09/14 06:56:50;;;;;;;9.65;5.20;;;14.20;99.90;;;;;;5036411;28;20084;-84
2022/09/14 06:59:17;;;;;;;9.18;5.15;;;14.30;99.90;;;;;;5036349;28;20051;-84
2022/09/14 07:01:47;;;;;;;6.80;5.00;;;14.30;99.90;;;;;;5038706;28;20040;-81
2022/09/14 07:04:13;;;;;;;9.43;4.70;;;14.40;99.90;;;;;;5051609;28;20049;-83
2022/09/14 07:06:43;;;;;;;8.50;4.10;;;14.40;99.90;;;;;;5015440;28;20075;-84
2022/09/14 07:09:10;;;;;;;9.05;4.32;;;14.40;99.90;;;;;;5030752;28;20048;-84
2022/09/14 07:11:37;;;;;;;7.95;4.55;;;14.50;99.90;;;;;;5029302;28;20061;-86
2022/09/14 07:14:03;;;;;;;8.00;4.60;;;14.60;99.90;;;;;;5039995;28;20178;-86
2022/09/14 07:16:31;;;;;;;12.38;5.22;;;14.50;99.90;;;;;;5025992;28;20044;-84
2022/09/14 07:19:03;;;;;;;8.65;4.70;;;14.70;99.90;;;;;;5017917;28;20048;-84
2022/09/14 07:21:30;;;;;;;7.63;4.57;;;14.80;99.90;;;;;;5043500;28;20048;-84
2022/09/14 07:23:55;;;;;;;9.38;4.78;;;14.90;99.90;;;;;;5034794;28;20052;-83
2022/09/14 07:26:24;;;;;;;12.57;5.40;;;14.90;99.90;;;;;;5039692;28;20413;-83
2022/09/14 07:28:53;;;;;;;12.45;4.70;;;15.00;99.90;;;;;;5033812;28;20041;-83
2022/09/14 07:31:36;;;;;;;9.05;4.20;;;15.10;99.90;;;;;;5071826;28;20508;-83
2022/09/14 07:34:03;;;;;;;7.03;4.30;;;15.20;99.90;;;;;;5026678;28;20063;-83
2022/09/14 07:36:31;;;;;;;8.20;4.32;;;15.20;99.90;;;;;;5050984;28;20041;-83
2022/09/14 07:38:57;;;;;;;10.90;4.10;;;15.30;99.90;;;;;;5032217;28;20037;-83
2022/09/14 07:41:26;;;;;;;8.82;3.40;;;15.40;99.90;;;;;;5037704;28;20045;-83
2022/09/14 07:43:53;;;;;;;7.20;3.47;;;15.50;99.90;;;;;;5038355;28;20049;-84
2022/09/14 07:46:20;;;;;;;7.85;3.85;;;15.60;99.90;;;;;;5028817;28;20182;-84
2022/09/14 07:48:47;;;;;;;8.30;2.95;;;15.60;99.90;;;;;;5060959;28;20101;-85
2022/09/14 07:51:13;;;;;;;8.07;3.90;;;15.70;99.90;;;;;;5032612;28;20035;-85
2022/09/14 07:53:41;;;;;;;9.80;3.00;;;15.80;99.90;;;;;;5062222;28;20112;-83
2022/09/14 07:56:09;;;;;;;6.72;2.35;;;15.80;99.90;;;;;;5039741;28;20044;-87
2022/09/14 07:58:35;;;;;;;6.28;2.13;;;15.90;99.90;;;;;;5057537;28;20045;-85
2022/09/14 08:01:06;;;;;;;5.22;2.13;;;15.90;99.90;;;;;;5057434;28;20516;-85
2022/09/14 08:03:32;;;;;;;19.83;2.42;;;16.00;99.90;;;;;;5058316;28;20068;-85
2022/09/14 08:06:04;;;;;;;7.38;2.45;;;16.10;99.90;;;;;;5059644;28;20041;-83
2022/09/14 08:08:35;;;;;;;7.53;2.47;;;16.10;99.90;;;;;;5060562;28;20080;-84
2022/09/14 08:11:10;;;;;;;5.85;1.83;;;16.20;99.90;;;;;;5026903;28;20107;-84
2022/09/14 08:13:37;;;;;;;7.00;2.40;;;16.30;99.90;;;;;;5054674;28;20041;-85
2022/09/14 08:16:04;;;;;;;7.57;2.22;;;16.30;99.90;;;;;;5035023;28;20044;-83
2022/09/14 08:18:34;;;;;;;8.15;1.65;;;16.40;99.90;;;;;;5016654;28;20052;-82
2022/09/14 08:21:17;;;;;;;5.80;1.50;;;16.50;99.90;;;;;;5054372;28;20041;-83
2022/09/14 08:23:44;;;;;;;5.88;1.23;;;16.60;99.90;;;;;;5052601;28;20092;-82
2022/09/14 08:26:18;;;;;;;5.57;1.75;;;16.60;99.90;;;;;;5048557;28;20128;-83
2022/09/14 08:28:45;;;;;;;4.43;1.40;;;16.60;99.90;;;;;;5055361;28;20469;-82
2022/09/14 08:31:14;;;;;;;6.32;1.60;;;16.60;99.90;;;;;;5041202;28;20456;-82
2022/09/14 08:33:44;;;;;;;8.00;2.05;;;16.70;99.90;;;;;;5030791;28;20504;-82
2022/09/14 08:36:13;;;;;;;5.97;2.08;;;16.70;99.90;;;;;;5041877;28;20040;-81
2022/09/14 08:38:39;;;;;;;6.50;1.83;;;16.70;99.90;;;;;;5044878;28;20090;-82
2022/09/14 08:41:09;;;;;;;4.18;1.40;;;16.80;99.90;;;;;;5030077;28;20586;-81
2022/09/14 08:43:38;;;;;;;6.57;1.52;;;16.90;99.90;;;;;;5040705;28;20037;-82
2022/09/14 08:46:08;;;;;;;4.97;1.27;;;16.90;99.90;;;;;;5021347;28;20049;-82
2022/09/14 08:48:38;;;;;;;9.30;1.38;;;17.00;99.90;;;;;;5050857;28;20037;-82
2022/09/14 08:51:05;;;;;;;6.45;1.85;;;17.00;99.90;;;;;;5048139;28;20130;-82
2022/09/14 08:53:39;;;;;;;4.32;1.63;;;17.10;99.90;;;;;;5029823;28;20048;-82
2022/09/14 08:56:24;;;;;;;2.40;1.30;;;17.10;99.90;;;;;;5036638;28;20401;-83
2022/09/14 08:58:59;;;;;;;3.75;1.20;;;17.20;99.90;;;;;;5055796;28;20045;-82
2022/09/14 09:01:24;;;;;;;5.82;1.20;;;17.20;99.90;;;;;;5033558;28;20105;-82
2022/09/14 09:04:20;;;;;;;5.72;1.30;;;17.30;99.90;;;;;;5038804;28;20168;-82
2022/09/14 09:07:04;;;;;;;5.85;1.17;;;17.40;99.90;;;;;;5071821;28;20033;-82
2022/09/14 09:09:51;;;;;;;3.85;1.00;;;17.40;99.90;;;;;;5031308;28;20041;-83
2022/09/14 09:12:40;;;;;;;5.25;1.40;;;17.50;99.90;;;;;;5033497;28;20030;-82
2022/09/14 09:15:21;;;;;;;6.70;1.75;;;17.50;99.90;;;;;;5036028;28;20041;-82
2022/09/14 09:17:52;;;;;;;3.83;1.10;;;17.60;99.90;;;;;;5029291;28;20191;-82
2022/09/14 09:20:39;;;;;;;2.17;0.90;;;17.60;99.90;;;;;;5054302;28;20076;-83
2022/09/14 09:23:15;;;;;;;2.65;0.85;;;17.70;99.90;;;;;;5039604;28;20068;-83
2022/09/14 09:26:05;;;;;;;4.68;1.40;;;17.70;99.90;;;;;;5035882;28;20496;-82
2022/09/14 09:28:32;;;;;;;5.28;0.90;;;17.80;99.90;;;;;;5034336;28;20120;-81
2022/09/14 09:31:03;;;;;;;10.82;1.20;;;17.70;99.90;;;;;;5071586;28;20555;-82
2022/09/14 09:33:30;;;;;;;4.35;0.90;;;17.80;99.90;;;;;;5053480;28;20045;-82
2022/09/14 09:35:57;;;;;;;5.05;1.13;;;17.80;99.90;;;;;;5021835;28;20040;-82
2022/09/14 09:38:26;;;;;;;4.53;1.10;;;17.80;99.90;;;;;;5048634;28;20045;-82
2022/09/14 09:41:20;;;;;;;4.50;1.10;;;17.80;99.90;;;;;;5034177;28;20124;-81
2022/09/14 09:44:08;;;;;;;9.38;1.27;;;17.80;99.90;;;;;;5037509;28;20037;-83
2022/09/14 09:46:37;;;;;;;3.63;1.02;;;17.80;99.90;;;;;;5032022;28;20366;-81
2022/09/14 09:49:23;;;;;;;11.52;1.17;;;17.80;99.90;;;;;;5049141;28;20048;-82
2022/09/14 09:51:50;;;;;;;4.50;0.77;;;17.80;99.90;;;;;;5032019;28;20401;-82
2022/09/14 09:54:42;;;;;;;8.35;1.25;;;17.80;99.90;;;;;;5044617;28;20145;-83
2022/09/14 09:57:37;;;;;;;3.55;0.90;;;17.90;99.90;;;;;;5027747;28;20049;-82
2022/09/14 10:00:23;;;;;;;11.60;1.08;;;18.00;99.90;;;;;;5022094;28;20057;-82
2022/09/14 10:02:50;;;;;;;5.38;1.00;;;18.00;99.90;;;;;;5049122;28;20037;-82
2022/09/14 10:05:31;;;;;;;6.60;1.13;;;18.00;99.90;;;;;;5031948;28;20382;-82
2022/09/14 10:08:14;;;;;;;1.85;0.68;;;18.10;99.90;;;;;;5045171;28;20049;-82
2022/09/14 10:10:43;;;;;;;4.40;0.73;;;18.10;99.90;;;;;;5033777;28;20390;-82
2022/09/14 10:13:33;;;;;;;2.58;0.82;;;18.10;99.90;;;;;;5020359;28;20037;-81
2022/09/14 10:16:15;;;;;;;4.57;0.90;;;18.20;99.90;;;;;;5047810;28;20063;-82
2022/09/14 10:18:47;;;;;;;3.25;0.68;;;18.30;99.90;;;;;;5047211;28;20041;-82
2022/09/14 10:21:15;;;;;;;3.30;0.80;;;18.30;99.90;;;;;;5035754;28;20029;-82
2022/09/14 10:23:42;;;;;;;3.50;0.60;;;18.30;99.90;;;;;;5058866;28;20528;-81
2022/09/14 10:26:11;;;;;;;3.25;0.80;;;18.40;99.90;;;;;;5052596;28;20653;-82
2022/09/14 10:28:38;;;;;;;3.83;0.90;;;18.50;99.90;;;;;;5057295;28;20087;-82
2022/09/14 10:31:10;;;;;;;2.78;0.90;;;18.50;99.90;;;;;;5027535;28;20041;-82
2022/09/14 10:33:36;;;;;;;3.40;0.65;;;18.60;99.90;;;;;;5046347;28;20049;-81
2022/09/14 10:36:28;;;;;;;7.05;1.30;;;18.60;99.90;;;;;;5046204;28;20099;-82
2022/09/14 10:38:59;;;;;;;4.70;1.05;;;18.60;99.90;;;;;;5043377;28;20098;-81
2022/09/14 10:41:47;;;;;;;4.35;0.73;;;18.70;99.90;;;;;;5039393;28;20047;-81
2022/09/14 10:44:47;;;;;;;5.28;0.88;;;18.80;99.90;;;;;;5041730;28;20071;-81
2022/09/14 10:47:35;;;;;;;3.47;0.98;;;18.80;99.90;;;;;;5027506;28;20044;-82
2022/09/14 10:50:18;;;;;;;2.33;0.65;;;18.90;99.90;;;;;;5045392;28;20459;-82
2022/09/14 10:53:01;;;;;;;3.25;0.70;;;18.90;99.90;;;;;;5031025;28;20098;-82
2022/09/14 10:55:31;;;;;;;1.45;0.60;;;19.00;99.90;;;;;;5032422;28;20060;-82
2022/09/14 10:58:11;;;;;;;2.92;1.00;;;19.10;99.90;;;;;;5051474;28;20119;-82
2022/09/14 11:01:27;;;;;;;3.92;0.70;;;19.20;99.90;;;;;;5047151;28;20045;-82
2022/09/14 11:04:23;;;;;;;4.68;0.93;;;19.20;99.90;;;;;;4979498;28;20494;-82
2022/09/14 11:07:04;;;;;;;4.55;0.70;;;19.20;99.90;;;;;;4990666;28;20128;-82
2022/09/14 11:09:45;;;;;;;4.20;0.80;;;19.20;99.90;;;;;;5013476;28;20256;-82
2022/09/14 11:12:24;;;;;;;3.72;1.00;;;19.20;99.90;;;;;;5041866;28;20425;-82
2022/09/14 11:15:05;;;;;;;23.17;1.30;;;19.20;99.90;;;;;;5027557;28;20068;-82
2022/09/14 11:17:49;;;;;;;0.90;0.47;;;19.20;99.90;;;;;;5048498;28;20037;-82
2022/09/14 11:20:37;;;;;;;4.07;0.70;;;19.30;99.90;;;;;;5044770;28;20079;-82
2022/09/14 11:23:33;;;;;;;3.40;0.70;;;19.30;99.90;;;;;;5049317;28;20073;-82
2022/09/14 11:26:05;;;;;;;2.08;0.68;;;19.40;99.90;;;;;;5047315;28;20052;-82
2022/09/14 11:28:46;;;;;;;2.53;0.63;;;19.50;99.90;;;;;;5046154;28;20037;-81
2022/09/14 11:31:21;;;;;;;2.47;0.57;;;19.50;99.90;;;;;;5051978;28;20040;-82
2022/09/14 11:33:55;;;;;;;2.85;0.63;;;19.60;99.90;;;;;;5038790;28;20128;-83
2022/09/14 11:36:27;;;;;;;2.80;0.70;;;19.70;99.90;;;;;;5040650;28;20049;-81
2022/09/14 11:39:04;;;;;;;5.05;0.77;;;19.70;99.90;;;;;;5054214;28;20124;-82
2022/09/14 11:41:38;;;;;;;4.82;0.70;;;19.70;99.90;;;;;;5048146;28;20094;-82
2022/09/14 11:44:13;;;;;;;3.88;0.70;;;19.70;99.90;;;;;;5034083;28;20041;-81
2022/09/14 11:46:45;;;;;;;2.17;0.77;;;19.70;99.90;;;;;;5028514;28;20491;-81
2022/09/14 11:49:26;;;;;;;1.70;0.73;;;19.70;99.90;;;;;;5033004;28;20037;-82
2022/09/14 11:52:21;;;;;;;4.30;0.77;;;19.60;99.90;;;;;;5050811;28;20120;-81
2022/09/14 11:54:49;;;;;;;2.22;0.60;;;19.50;99.90;;;;;;5039203;28;20052;-82
2022/09/14 11:57:33;;;;;;;2.42;0.55;;;19.30;99.90;;;;;;5017088;28;20051;-82
2022/09/14 12:00:02;;;;;;;2.80;0.73;;;19.30;99.90;;;;;;5012564;28;20033;-81
2022/09/14 12:02:28;;;;;;;7.60;0.77;;;19.20;99.90;;;;;;5036092;28;20489;-81
2022/09/14 12:05:07;;;;;;;2.47;0.60;;;19.20;99.90;;;;;;5040746;28;20041;-82
2022/09/14 12:07:54;;;;;;;4.60;0.90;;;19.10;99.90;;;;;;5048385;28;20084;-81
2022/09/14 12:10:21;;;;;;;2.53;0.70;;;19.20;99.90;;;;;;5026777;28;20447;-81
2022/09/14 12:12:57;;;;;;;1.90;0.50;;;19.10;99.90;;;;;;5054003;28;20033;-81
2022/09/14 12:15:26;;;;;;;3.38;0.88;;;19.10;99.90;;;;;;5027666;28;20389;-82
2022/09/14 12:18:13;;;;;;;3.53;0.70;;;19.20;99.90;;;;;;5034325;28;20044;-81
2022/09/14 12:20:59;;;;;;;2.92;0.60;;;19.20;99.90;;;;;;5034034;28;20053;-82
2022/09/14 12:23:38;;;;;;;4.45;0.70;;;19.20;99.90;;;;;;5044167;28;20401;-82
2022/09/14 12:26:04;;;;;;;3.22;0.77;;;19.20;99.90;;;;;;5047575;28;20167;-82
2022/09/14 12:28:36;;;;;;;4.80;0.88;;;19.30;99.90;;;;;;5039868;28;20073;-81
2022/09/14 12:31:02;;;;;;;6.18;0.77;;;19.40;99.90;;;;;;5051915;28;20065;-82
2022/09/14 12:33:33;;;;;;;2.10;0.60;;;19.40;99.90;;;;;;5052550;28;20497;-83
2022/09/14 12:36:06;;;;;;;5.32;0.75;;;19.50;99.90;;;;;;5054515;28;20045;-82
2022/09/14 12:38:53;;;;;;;4.20;0.93;;;19.60;99.90;;;;;;5046113;28;20045;-82
2022/09/14 12:41:18;;;;;;;1.92;0.60;;;19.80;99.90;;;;;;5032339;28;20509;-81
2022/09/14 12:43:45;;;;;;;4.03;0.73;;;20.00;99.90;;;;;;5042903;28;20036;-82
2022/09/14 12:46:32;;;;;;;8.30;1.55;;;20.10;99.90;;;;;;5041250;28;20488;-82
2022/09/14 12:49:24;;;;;;;2.53;0.60;;;20.30;99.90;;;;;;5030075;28;20040;-82
2022/09/14 12:51:50;;;;;;;2.65;0.98;;;20.40;99.70;;;;;;5044913;28;20049;-82
2022/09/14 12:54:21;;;;;;;2.25;0.98;;;20.50;99.90;;;;;;5035242;28;20091;-82
2022/09/14 12:57:34;;;;;;;4.57;1.25;;;20.50;99.90;;;;;;5043852;28;20040;-82
2022/09/14 13:00:09;;;;;;;2.33;0.70;;;20.60;99.90;;;;;;4994952;28;20048;-82
2022/09/14 13:03:09;;;;;;;3.28;0.95;;;20.60;99.50;;;;;;5060021;28;20095;-82
2022/09/14 13:05:35;;;;;;;3.50;1.00;;;20.60;98.30;;;;;;5036633;28;20045;-82
2022/09/14 13:08:09;;;;;;;4.00;0.98;;;20.50;99.20;;;;;;5053665;28;20037;-82
2022/09/14 13:10:38;;;;;;;4.05;1.08;;;20.50;99.00;;;;;;5043866;28;20041;-82
2022/09/14 13:13:13;;;;;;;2.17;0.80;;;20.50;99.50;;;;;;5050648;28;20120;-82